Aeroporto :
LOGIN :

Iscrizione | Disclaimer

   EN    FR    IT 

 










Sommario :    VFR   VFR Marginale   IFR   IFR Intensivo   IFR Molto Intensivo
Visibilità : 
Base nubi : 
>= 8 km
>= 3000ft
5 / 8 km
1000 / 3000 ft
1500m / 5 km
500 / 1000 ft
800 / 1500m
200 / 500 ft
< 800m
< 200 ft
Simboli :   Temporali  Nebbia  Neve Forte  Precipitazioni Forti  Vento > 20 kt
SIGMETs :   Varie  Temporali  Ghiacco  Turbolenza  Onda orograficha  Ceneri Vulcaniche






- Altitudine del aeroporto : 100 ft


EBDT - Schaffen

ULTIMO METAR :
  • 242055Z AUTO 17008KT 9999 -RA FEW070/// SCT100/// BKN120/// 14/11 Q0996 BLU

METARs OBSOLETI :
  • 242025Z AUTO 17008KT 9999 FEW035/// SCT095/// BKN110/// 13/12 Q0996 BLU
  • 241955Z AUTO 16006KT 9999 FEW037/// BKN048/// BKN090/// 13/12 Q0997 BLU
  • 241925Z AUTO 15006KT 9999 -RA BKN045/// OVC055/// 14/12 Q0997 BLU
  • 241855Z AUTO 14004KT 9999 -RA FEW042/// BKN050/// OVC080/// 13/12 Q0997 BLU
  • 241825Z AUTO 17003KT 9999 -RA BKN060/// BKN085/// 14/11 Q0998 BLU

TAF TAF EBDT
Valido dal 24 a 13 ore il 24 a 22 ore UTC


241141Z 2413/2422 20018G28KT 9999 FEW045
BECMG 2415/2417 18008KT
BECMG 2419/2421 18010G20KT 6000 -RA SCT022 BKN050
TEMPO 2420/2422 20012G22KT 4000 SHRA SCT012 SCT020TCU BKN050



MetMap, La meteo Aeronautica in un colpo d'occhio ! - Copyright ORBIFLY Dicembre 2007 - Disclaimer

ORBIFLY MET'MAP TEAM :

Programmazione e sviluppo : Alexandra Zaïnal
Concezione : Baudouin d'Aumeries
Aiuto per la programmazione : Marc-Olivier Méhu
Supporto tecnico e logistico : Manuel Goepfert
Aiuto per la traduzione : Arnaldo La Scala

Contatto : metmap@orbifly.com




FONTI E CREDITI :

   NOAA